Time;durP1;ratioP1;P1;durP2;ratioP2;P2;SDS_P1;SDS_P2;PMS_P1;PMS_P2;Temp;Humidity;BMP_temperature;BMP_pressure;BME280_temperature;BME280_humidity;BME280_pressure;Samples;Min_cycle;Max_cycle;Signal;HPM_P1;HPM_P2
2023/05/07 00:01:43;;;;;;;27.67;15.48;;;14.30;99.90;;;;;;5055691;28;20050;-73
2023/05/07 00:04:08;;;;;;;25.10;14.25;;;14.20;99.90;;;;;;5073469;28;20418;-72
2023/05/07 00:06:34;;;;;;;22.70;13.88;;;14.10;99.90;;;;;;5072720;28;20084;-72
2023/05/07 00:09:00;;;;;;;24.17;13.25;;;14.20;99.90;;;;;;5073409;28;20389;-72
2023/05/07 00:11:27;;;;;;;22.60;13.48;;;14.30;99.90;;;;;;5072691;28;20408;-72
2023/05/07 00:13:53;;;;;;;26.20;13.70;;;14.20;99.90;;;;;;5071942;28;20141;-72
2023/05/07 00:16:19;;;;;;;25.13;13.47;;;14.10;99.90;;;;;;5072858;28;20105;-73
2023/05/07 00:18:45;;;;;;;22.90;12.75;;;14.20;99.90;;;;;;5073134;28;20123;-73
2023/05/07 00:21:11;;;;;;;22.73;12.23;;;14.10;99.90;;;;;;5071749;28;20466;-73
2023/05/07 00:23:37;;;;;;;24.05;12.30;;;14.10;99.90;;;;;;5072815;28;20048;-73
2023/05/07 00:26:03;;;;;;;21.17;11.45;;;14.20;99.90;;;;;;5071939;28;20055;-72
2023/05/07 00:28:29;;;;;;;19.63;11.48;;;14.10;99.90;;;;;;5055314;28;20048;-73
2023/05/07 00:30:55;;;;;;;21.00;11.95;;;14.10;99.90;;;;;;5073026;28;20055;-73
2023/05/07 00:33:22;;;;;;;21.40;11.52;;;14.20;99.90;;;;;;5073331;28;20049;-81
2023/05/07 00:35:47;;;;;;;18.83;11.20;;;14.20;99.90;;;;;;5075261;28;20041;-82
2023/05/07 00:38:13;;;;;;;19.15;10.90;;;14.10;99.90;;;;;;5074655;28;20044;-83
2023/05/07 00:40:39;;;;;;;20.08;10.82;;;14.10;99.90;;;;;;5074467;28;20102;-83
2023/05/07 00:43:05;;;;;;;18.45;10.30;;;14.10;99.90;;;;;;5077766;28;20083;-83
2023/05/07 00:45:31;;;;;;;21.67;10.82;;;14.10;99.90;;;;;;5074823;28;20041;-84
2023/05/07 00:48:02;;;;;;;18.92;10.93;;;14.10;99.90;;;;;;5077898;28;20059;-81
2023/05/07 00:50:28;;;;;;;18.10;10.65;;;14.00;99.90;;;;;;5079766;28;20048;-83
2023/05/07 00:52:54;;;;;;;20.27;11.05;;;14.00;99.90;;;;;;5078036;28;20056;-81
2023/05/07 00:55:21;;;;;;;19.63;10.53;;;14.00;99.90;;;;;;5058707;28;20128;-82
2023/05/07 00:57:48;;;;;;;18.55;10.55;;;14.00;99.90;;;;;;5075815;28;20048;-82
2023/05/07 01:00:14;;;;;;;21.35;11.00;;;14.00;99.90;;;;;;5076149;28;20052;-81
2023/05/07 01:02:40;;;;;;;18.17;10.60;;;14.00;99.90;;;;;;5073149;28;20377;-81
2023/05/07 01:05:09;;;;;;;21.20;10.82;;;13.90;99.90;;;;;;5074170;28;20076;-82
2023/05/07 01:07:35;;;;;;;19.75;11.15;;;14.00;99.90;;;;;;5073697;28;20110;-81
2023/05/07 01:10:01;;;;;;;20.67;11.90;;;13.90;99.90;;;;;;5056472;28;20040;-83
2023/05/07 01:12:29;;;;;;;20.60;10.70;;;13.80;99.90;;;;;;5072570;28;20036;-82
2023/05/07 01:14:55;;;;;;;19.55;11.98;;;13.80;99.90;;;;;;5072965;28;20086;-80
2023/05/07 01:17:21;;;;;;;20.65;11.70;;;13.80;99.90;;;;;;5072986;28;20040;-80
2023/05/07 01:19:48;;;;;;;19.70;11.77;;;13.80;99.90;;;;;;5073502;28;20094;-80
2023/05/07 01:22:16;;;;;;;21.50;11.20;;;13.70;99.90;;;;;;5072024;28;20500;-81
2023/05/07 01:24:42;;;;;;;19.80;11.90;;;13.80;99.90;;;;;;5072414;28;20385;-81
2023/05/07 01:27:08;;;;;;;20.50;12.70;;;13.80;99.90;;;;;;5072477;28;20489;-82
2023/05/07 01:29:34;;;;;;;21.35;12.93;;;13.60;99.90;;;;;;5072601;28;20051;-82
2023/05/07 01:32:02;;;;;;;23.02;12.70;;;13.60;99.90;;;;;;5057062;28;20056;-81
2023/05/07 01:34:31;;;;;;;25.33;13.43;;;13.70;99.90;;;;;;5073396;28;20045;-80
2023/05/07 01:36:57;;;;;;;22.60;13.00;;;13.50;99.90;;;;;;5072010;28;20556;-80
2023/05/07 01:39:26;;;;;;;23.20;13.00;;;13.60;99.90;;;;;;5056515;28;20045;-79
2023/05/07 01:41:55;;;;;;;23.45;13.98;;;13.60;99.90;;;;;;5073036;28;20037;-79
2023/05/07 01:44:21;;;;;;;30.17;14.82;;;13.60;99.90;;;;;;5073813;28;20389;-79
2023/05/07 01:46:47;;;;;;;27.25;15.23;;;13.50;99.90;;;;;;5072212;28;20038;-80
2023/05/07 01:49:14;;;;;;;26.70;15.48;;;13.50;99.90;;;;;;5074544;28;20047;-80
2023/05/07 01:51:40;;;;;;;28.27;15.20;;;13.40;99.90;;;;;;5073683;28;20048;-79
2023/05/07 01:54:06;;;;;;;26.03;14.63;;;13.40;99.90;;;;;;5074690;28;20359;-80
2023/05/07 01:56:32;;;;;;;24.77;15.15;;;13.40;99.90;;;;;;5055819;28;20127;-80
2023/05/07 01:58:58;;;;;;;27.48;15.43;;;13.30;99.90;;;;;;5073306;28;20206;-78
2023/05/07 02:01:23;;;;;;;27.63;15.43;;;13.20;99.90;;;;;;5072537;28;20162;-81
2023/05/07 02:03:49;;;;;;;24.65;14.90;;;13.20;99.90;;;;;;5072686;28;20057;-80
2023/05/07 02:06:15;;;;;;;27.30;14.95;;;13.20;99.90;;;;;;5072296;28;20068;-77
2023/05/07 02:08:41;;;;;;;26.08;15.32;;;13.10;99.90;;;;;;5055105;28;20098;-81
2023/05/07 02:11:06;;;;;;;24.90;14.82;;;13.00;99.90;;;;;;5055318;28;20040;-80
2023/05/07 02:13:34;;;;;;;27.30;16.63;;;13.00;99.90;;;;;;5074128;28;20048;-80
2023/05/07 02:16:00;;;;;;;30.23;15.70;;;13.00;99.90;;;;;;5076704;28;20427;-79
2023/05/07 02:18:25;;;;;;;26.52;15.63;;;12.80;99.90;;;;;;5075547;28;20040;-79
2023/05/07 02:20:51;;;;;;;28.45;15.45;;;12.90;99.90;;;;;;5076381;28;20071;-79
2023/05/07 02:23:17;;;;;;;28.17;16.52;;;12.80;99.90;;;;;;5076255;28;20044;-79
2023/05/07 02:25:42;;;;;;;27.38;16.52;;;12.80;99.90;;;;;;5076352;28;20047;-80
2023/05/07 02:28:08;;;;;;;27.70;15.95;;;12.70;99.90;;;;;;5058396;28;20044;-78
2023/05/07 02:30:34;;;;;;;27.60;16.25;;;12.70;99.90;;;;;;5076375;28;20389;-79
2023/05/07 02:33:00;;;;;;;26.15;14.73;;;12.60;99.90;;;;;;5075991;28;20373;-79
2023/05/07 02:35:25;;;;;;;26.65;15.77;;;12.70;99.90;;;;;;5074713;28;20051;-78
2023/05/07 02:37:51;;;;;;;29.48;15.65;;;12.60;99.90;;;;;;5075924;28;20480;-78
2023/05/07 02:40:17;;;;;;;29.23;15.85;;;12.60;99.90;;;;;;5075900;28;20063;-75
2023/05/07 02:42:43;;;;;;;27.48;15.88;;;12.50;99.90;;;;;;5074542;28;20085;-78
2023/05/07 02:45:09;;;;;;;28.10;16.42;;;12.50;99.90;;;;;;5074465;28;20036;-77
2023/05/07 02:47:35;;;;;;;32.33;16.95;;;12.50;99.90;;;;;;5076351;28;20160;-76
2023/05/07 02:50:01;;;;;;;28.55;16.58;;;12.50;99.90;;;;;;5074505;28;20496;-78
2023/05/07 02:52:26;;;;;;;30.70;17.15;;;12.40;99.90;;;;;;5074429;28;20476;-78
2023/05/07 02:54:52;;;;;;;30.70;17.00;;;12.40;99.90;;;;;;5075412;28;20067;-76
2023/05/07 02:57:18;;;;;;;30.90;18.00;;;12.40;99.90;;;;;;5074121;28;20488;-79
2023/05/07 02:59:44;;;;;;;32.13;17.35;;;12.30;99.90;;;;;;5075663;28;20132;-79
2023/05/07 03:02:10;;;;;;;35.75;18.55;;;12.40;99.90;;;;;;5074230;28;20080;-78
2023/05/07 03:04:36;;;;;;;35.88;18.02;;;12.40;99.90;;;;;;5057551;28;20037;-77
2023/05/07 03:07:01;;;;;;;34.15;18.00;;;12.30;99.90;;;;;;5074146;28;20052;-78
2023/05/07 03:09:27;;;;;;;32.25;17.25;;;12.40;99.90;;;;;;5075679;28;20041;-79
2023/05/07 03:11:53;;;;;;;31.63;18.33;;;12.30;99.90;;;;;;5074344;28;20040;-80
2023/05/07 03:14:18;;;;;;;35.03;17.98;;;12.10;99.90;;;;;;5075130;28;20041;-78
2023/05/07 03:16:47;;;;;;;33.17;18.23;;;12.30;99.90;;;;;;5074185;28;20075;-78
2023/05/07 03:19:12;;;;;;;32.10;18.95;;;12.30;99.90;;;;;;5074241;28;20088;-78
2023/05/07 03:21:38;;;;;;;34.53;17.83;;;12.20;99.90;;;;;;5057543;28;20095;-77
2023/05/07 03:24:04;;;;;;;35.65;17.85;;;12.20;99.90;;;;;;5074525;28;20121;-76
2023/05/07 03:26:30;;;;;;;36.08;19.27;;;12.20;99.90;;;;;;5074027;28;20048;-79
2023/05/07 03:28:56;;;;;;;38.58;19.85;;;12.20;99.90;;;;;;5057904;28;20052;-80
2023/05/07 03:31:21;;;;;;;37.85;19.92;;;12.10;99.90;;;;;;5075288;28;20189;-81
2023/05/07 03:33:51;;;;;;;36.50;19.45;;;12.10;99.90;;;;;;5073765;28;20131;-81
2023/05/07 03:36:17;;;;;;;39.47;20.10;;;12.20;99.90;;;;;;5075590;28;20435;-78
2023/05/07 03:38:43;;;;;;;39.03;20.48;;;11.90;99.90;;;;;;5073804;28;20048;-76
2023/05/07 03:41:09;;;;;;;42.42;19.92;;;12.00;99.90;;;;;;5075401;28;20381;-78
2023/05/07 03:43:35;;;;;;;42.15;19.80;;;12.00;99.90;;;;;;5074792;28;20398;-80
2023/05/07 03:46:00;;;;;;;35.42;18.63;;;11.90;99.90;;;;;;5056883;28;20434;-80
2023/05/07 03:48:26;;;;;;;37.83;21.05;;;11.90;99.90;;;;;;5057458;28;20048;-81
2023/05/07 03:50:52;;;;;;;42.33;21.65;;;11.90;99.90;;;;;;5073550;28;20098;-80
2023/05/07 03:53:17;;;;;;;40.28;22.02;;;11.80;99.90;;;;;;5074121;28;20036;-79
2023/05/07 03:55:43;;;;;;;41.45;21.48;;;12.00;99.90;;;;;;5074289;28;20060;-80
2023/05/07 03:58:09;;;;;;;46.45;20.95;;;12.00;99.90;;;;;;5074156;28;20088;-78
2023/05/07 04:00:38;;;;;;;41.17;22.30;;;12.00;99.90;;;;;;5073072;28;20066;-79
2023/05/07 04:03:04;;;;;;;39.13;20.98;;;12.00;99.90;;;;;;5074153;28;20127;-79
2023/05/07 04:05:30;;;;;;;42.05;21.98;;;12.00;99.90;;;;;;5074005;28;20089;-77
2023/05/07 04:07:58;;;;;;;42.50;21.05;;;11.90;99.90;;;;;;5073060;28;20048;-77
2023/05/07 04:10:24;;;;;;;45.65;23.42;;;12.00;99.90;;;;;;5072767;28;20052;-79
2023/05/07 04:12:49;;;;;;;46.90;21.83;;;12.00;99.90;;;;;;5072502;28;20089;-76
2023/05/07 04:15:15;;;;;;;45.38;22.27;;;11.90;99.90;;;;;;5073957;28;20051;-78
2023/05/07 04:17:41;;;;;;;47.15;22.48;;;11.90;99.90;;;;;;5073978;28;20041;-77
2023/05/07 04:20:10;;;;;;;47.63;23.90;;;11.90;99.90;;;;;;5072592;28;20052;-78
2023/05/07 04:22:36;;;;;;;44.08;21.50;;;11.90;99.90;;;;;;5072839;28;20044;-75
2023/05/07 04:25:03;;;;;;;41.10;22.10;;;11.90;99.90;;;;;;5073488;28;20511;-77
2023/05/07 04:27:29;;;;;;;39.75;21.15;;;11.90;99.90;;;;;;5073716;28;20040;-78
2023/05/07 04:29:57;;;;;;;46.60;23.15;;;11.90;99.90;;;;;;5072641;28;20044;-77
2023/05/07 04:32:24;;;;;;;44.83;22.58;;;11.90;99.90;;;;;;5073894;28;20040;-80
2023/05/07 04:34:50;;;;;;;45.95;22.92;;;12.00;99.90;;;;;;5073750;28;20052;-78
2023/05/07 04:37:16;;;;;;;44.17;22.38;;;12.00;99.90;;;;;;5072873;28;20040;-80
2023/05/07 04:39:42;;;;;;;43.55;21.70;;;12.10;99.90;;;;;;5072808;28;20047;-78
2023/05/07 04:42:08;;;;;;;44.10;22.42;;;12.00;99.90;;;;;;5073276;28;20040;-78
2023/05/07 04:44:36;;;;;;;48.13;22.70;;;12.00;99.90;;;;;;5074241;28;20044;-78
2023/05/07 04:47:02;;;;;;;45.45;23.08;;;12.00;99.90;;;;;;5072173;28;20048;-79
2023/05/07 04:49:28;;;;;;;46.72;24.13;;;12.00;99.90;;;;;;5055934;28;20059;-77
2023/05/07 04:51:54;;;;;;;45.17;23.52;;;12.00;99.90;;;;;;5072108;28;20051;-77
2023/05/07 04:54:19;;;;;;;42.58;21.38;;;12.00;99.90;;;;;;5072229;28;20048;-77
2023/05/07 04:56:46;;;;;;;46.40;22.17;;;12.10;99.90;;;;;;5055041;28;20049;-74
2023/05/07 04:59:12;;;;;;;42.25;22.10;;;12.00;99.90;;;;;;5055240;28;20075;-76
2023/05/07 05:01:38;;;;;;;42.95;22.05;;;12.10;99.90;;;;;;5056316;28;20044;-78
2023/05/07 05:04:04;;;;;;;42.60;22.25;;;12.20;99.90;;;;;;5072354;28;20040;-77
2023/05/07 05:06:30;;;;;;;44.83;22.08;;;12.10;99.90;;;;;;5073124;28;20401;-77
2023/05/07 05:08:56;;;;;;;42.27;22.73;;;12.10;99.90;;;;;;5072248;28;20106;-77
2023/05/07 05:11:21;;;;;;;41.80;20.83;;;12.20;99.90;;;;;;5055193;28;20290;-78
2023/05/07 05:13:49;;;;;;;41.08;21.08;;;12.10;99.90;;;;;;5071916;28;20538;-75
2023/05/07 05:16:15;;;;;;;39.55;21.60;;;12.20;99.90;;;;;;5072927;28;20047;-79
2023/05/07 05:18:41;;;;;;;43.60;22.00;;;12.20;99.90;;;;;;5055564;28;20051;-77
2023/05/07 05:21:06;;;;;;;38.63;20.33;;;12.20;99.90;;;;;;5073016;28;20048;-77
2023/05/07 05:23:32;;;;;;;39.78;20.98;;;12.30;99.90;;;;;;5071909;28;20041;-75
2023/05/07 05:25:58;;;;;;;42.28;20.17;;;12.30;99.90;;;;;;5072551;28;20472;-75
2023/05/07 05:28:24;;;;;;;39.97;20.47;;;12.20;99.90;;;;;;5071742;28;20052;-74
2023/05/07 05:30:50;;;;;;;36.40;19.63;;;12.30;99.90;;;;;;5072671;28;20048;-76
2023/05/07 05:33:16;;;;;;;35.28;20.05;;;12.30;99.90;;;;;;5071623;28;20127;-77
2023/05/07 05:35:42;;;;;;;36.95;19.80;;;12.40;99.90;;;;;;5072846;28;20037;-78
2023/05/07 05:38:08;;;;;;;33.35;18.70;;;12.20;99.90;;;;;;5073039;28;20403;-78
2023/05/07 05:40:34;;;;;;;35.80;19.53;;;12.30;99.90;;;;;;5055405;28;20047;-77
2023/05/07 05:43:00;;;;;;;36.47;19.50;;;12.30;99.90;;;;;;5054688;28;20123;-77
2023/05/07 05:45:25;;;;;;;37.30;19.38;;;12.30;99.90;;;;;;5072982;28;20043;-77
2023/05/07 05:47:51;;;;;;;34.60;19.70;;;12.40;99.90;;;;;;5074473;28;20044;-79
2023/05/07 05:50:17;;;;;;;39.38;20.27;;;12.40;99.90;;;;;;5076672;28;20040;-79
2023/05/07 05:52:43;;;;;;;37.20;19.30;;;12.40;99.90;;;;;;5076915;28;20048;-78
2023/05/07 05:55:09;;;;;;;36.55;18.90;;;12.50;99.90;;;;;;5075456;28;20106;-76
2023/05/07 05:57:35;;;;;;;37.75;18.42;;;12.60;99.90;;;;;;5077111;28;20057;-78
2023/05/07 06:00:02;;;;;;;37.45;19.63;;;12.60;99.90;;;;;;5075524;28;20059;-78
2023/05/07 06:02:28;;;;;;;;;;;12.60;99.90;;;;;;5075851;28;20177;-80
2023/05/07 06:04:53;;;;;;;34.80;18.07;;;12.70;99.90;;;;;;5075852;28;20007;-75
2023/05/07 06:07:19;;;;;;;37.20;18.73;;;12.70;99.90;;;;;;5058908;28;20052;-81
2023/05/07 06:09:45;;;;;;;36.20;19.65;;;12.80;99.90;;;;;;5059830;28;20044;-77
2023/05/07 06:12:11;;;;;;;34.72;19.55;;;12.70;99.90;;;;;;5076916;28;20110;-78
2023/05/07 06:14:37;;;;;;;37.17;19.77;;;12.60;99.90;;;;;;5076958;28;20049;-77
2023/05/07 06:17:03;;;;;;;39.92;19.98;;;12.70;99.90;;;;;;5059215;28;20119;-78
2023/05/07 06:19:29;;;;;;;34.60;18.17;;;12.80;99.90;;;;;;5078127;28;20484;-80
2023/05/07 06:21:56;;;;;;;36.90;19.67;;;12.80;99.90;;;;;;5076510;28;20383;-78
2023/05/07 06:24:22;;;;;;;39.03;21.05;;;12.80;99.90;;;;;;5076331;28;20041;-75
2023/05/07 06:26:48;;;;;;;34.78;19.10;;;12.80;99.90;;;;;;5075177;28;20044;-77
2023/05/07 06:29:14;;;;;;;37.38;20.17;;;12.90;99.90;;;;;;5077091;28;20055;-79
2023/05/07 06:31:39;;;;;;;36.38;19.83;;;12.80;99.90;;;;;;5077531;28;20123;-78
2023/05/07 06:34:06;;;;;;;36.85;19.65;;;12.90;99.90;;;;;;5059007;28;20055;-80
2023/05/07 06:36:31;;;;;;;33.47;18.98;;;12.90;99.90;;;;;;5075372;28;20454;-79
2023/05/07 06:38:57;;;;;;;35.85;17.63;;;12.90;99.90;;;;;;5060592;28;20088;-74
2023/05/07 06:41:23;;;;;;;37.85;19.67;;;13.00;99.90;;;;;;5075525;28;20127;-80
2023/05/07 06:43:49;;;;;;;36.05;20.38;;;13.00;99.90;;;;;;5076352;28;20442;-78
2023/05/07 06:46:15;;;;;;;37.90;20.17;;;13.00;99.90;;;;;;5076740;28;20097;-82
2023/05/07 06:48:41;;;;;;;41.30;20.45;;;13.10;99.90;;;;;;5075015;28;20127;-80
2023/05/07 06:51:06;;;;;;;40.47;19.90;;;13.10;99.90;;;;;;5076992;28;20124;-80
2023/05/07 06:53:32;;;;;;;35.63;19.73;;;13.20;99.90;;;;;;5076255;28;20419;-80
2023/05/07 06:55:58;;;;;;;36.83;20.52;;;13.20;99.90;;;;;;5074758;28;20075;-80
2023/05/07 06:58:24;;;;;;;37.88;20.70;;;13.20;99.90;;;;;;5075026;28;20064;-80
2023/05/07 07:00:49;;;;;;;37.72;19.60;;;13.30;99.90;;;;;;5074810;28;20059;-78
2023/05/07 07:03:15;;;;;;;37.05;20.00;;;13.50;99.90;;;;;;5075747;28;20049;-76
2023/05/07 07:05:41;;;;;;;41.22;21.10;;;13.70;99.90;;;;;;5074440;28;20390;-78
2023/05/07 07:08:07;;;;;;;37.83;21.10;;;13.70;99.90;;;;;;5057801;28;20080;-78
2023/05/07 07:10:33;;;;;;;41.20;20.60;;;13.70;99.90;;;;;;5075522;28;20067;-79
2023/05/07 07:12:59;;;;;;;41.55;21.75;;;13.90;99.90;;;;;;5074881;28;20130;-79
2023/05/07 07:15:25;;;;;;;38.45;20.60;;;14.00;99.90;;;;;;5075180;28;20090;-79
2023/05/07 07:17:51;;;;;;;37.70;20.55;;;14.10;99.90;;;;;;5074419;28;20041;-81
2023/05/07 07:20:17;;;;;;;37.00;20.73;;;14.30;99.90;;;;;;5076107;28;20052;-80
2023/05/07 07:22:43;;;;;;;35.33;20.38;;;14.40;99.90;;;;;;5075981;28;20045;-78
2023/05/07 07:25:09;;;;;;;42.67;20.98;;;14.50;99.90;;;;;;5074388;28;20558;-81
2023/05/07 07:27:35;;;;;;;36.25;18.52;;;14.60;99.90;;;;;;5075764;28;20393;-79
2023/05/07 07:30:00;;;;;;;38.13;20.60;;;14.70;99.90;;;;;;5074016;28;20040;-79
2023/05/07 07:32:26;;;;;;;38.72;21.23;;;14.70;99.90;;;;;;5058735;28;20059;-80
2023/05/07 07:34:52;;;;;;;36.35;18.20;;;14.80;99.90;;;;;;5073993;28;20119;-80
2023/05/07 07:37:17;;;;;;;34.88;19.83;;;14.90;99.90;;;;;;5058296;28;20037;-79
2023/05/07 07:39:43;;;;;;;36.30;21.38;;;15.10;99.90;;;;;;5058403;28;20437;-78
2023/05/07 07:42:09;;;;;;;36.55;17.85;;;15.30;99.90;;;;;;5057377;28;20063;-78
2023/05/07 07:44:34;;;;;;;37.20;19.60;;;15.50;99.90;;;;;;5073519;28;20044;-79
2023/05/07 07:47:00;;;;;;;36.28;20.80;;;15.60;99.90;;;;;;5059360;28;20091;-78
2023/05/07 07:49:26;;;;;;;37.35;19.35;;;15.60;99.90;;;;;;5056629;28;20049;-76
2023/05/07 07:51:52;;;;;;;38.83;20.63;;;15.70;99.90;;;;;;5057702;28;20047;-79
2023/05/07 07:54:18;;;;;;;37.80;20.48;;;15.80;99.90;;;;;;5073456;28;20044;-81
2023/05/07 07:56:44;;;;;;;34.60;20.90;;;15.80;99.90;;;;;;5073434;28;20550;-79
2023/05/07 07:59:09;;;;;;;34.03;20.17;;;15.90;99.90;;;;;;5075367;28;20055;-76
2023/05/07 08:01:35;;;;;;;40.25;21.35;;;16.10;99.90;;;;;;5074367;28;20048;-78
2023/05/07 08:04:03;;;;;;;36.70;20.70;;;16.10;99.90;;;;;;5076071;28;20500;-79
2023/05/07 08:06:29;;;;;;;38.42;20.60;;;16.20;99.90;;;;;;5076273;28;20052;-75
2023/05/07 08:08:55;;;;;;;38.30;21.87;;;16.30;99.90;;;;;;5076237;28;20091;-81
2023/05/07 08:11:21;;;;;;;31.50;16.88;;;16.30;99.90;;;;;;5073783;28;20041;-77
2023/05/07 08:13:47;;;;;;;38.13;21.20;;;16.40;99.90;;;;;;5073582;28;20496;-79
2023/05/07 08:16:13;;;;;;;37.20;21.33;;;16.30;99.90;;;;;;5075760;28;20499;-79
2023/05/07 08:18:39;;;;;;;36.70;20.67;;;16.30;99.90;;;;;;5058003;28;20048;-79
2023/05/07 08:21:05;;;;;;;33.83;20.23;;;16.40;99.90;;;;;;5074185;28;20047;-78
2023/05/07 08:23:31;;;;;;;35.30;20.80;;;16.60;99.90;;;;;;5074062;28;20044;-78
2023/05/07 08:25:57;;;;;;;36.40;20.60;;;16.70;99.90;;;;;;5075220;28;20082;-81
2023/05/07 08:28:24;;;;;;;35.47;19.98;;;16.90;99.90;;;;;;5073602;28;20044;-79
2023/05/07 08:30:50;;;;;;;36.85;20.48;;;17.10;99.90;;;;;;5074537;28;20044;-81
2023/05/07 08:33:16;;;;;;;34.22;19.73;;;17.30;99.90;;;;;;5074027;28;20044;-76
2023/05/07 08:35:42;;;;;;;33.33;20.30;;;17.40;99.90;;;;;;5073922;28;20118;-79
2023/05/07 08:38:07;;;;;;;35.47;20.52;;;17.40;99.90;;;;;;5074240;28;20048;-78
2023/05/07 08:40:37;;;;;;;37.30;20.70;;;17.40;99.90;;;;;;5073258;28;20380;-78
2023/05/07 08:43:05;;;;;;;36.60;20.38;;;17.40;99.90;;;;;;5073777;28;20119;-76
2023/05/07 08:45:33;;;;;;;35.70;20.38;;;17.40;99.90;;;;;;5057367;28;20073;-79
2023/05/07 08:48:02;;;;;;;31.20;17.42;;;17.40;99.90;;;;;;5075226;28;20159;-78
2023/05/07 08:50:29;;;;;;;35.15;21.27;;;17.40;99.90;;;;;;5075156;28;20045;-82
2023/05/07 08:52:56;;;;;;;37.13;21.35;;;17.30;99.90;;;;;;5075485;28;20502;-78
2023/05/07 08:55:25;;;;;;;37.22;21.25;;;17.40;99.90;;;;;;5075845;28;20048;-77
2023/05/07 08:57:52;;;;;;;37.22;20.92;;;17.50;99.90;;;;;;5076382;28;20145;-83
2023/05/07 09:00:18;;;;;;;37.28;20.83;;;17.50;99.90;;;;;;5075516;28;20056;-84
2023/05/07 09:02:44;;;;;;;35.45;21.00;;;17.50;99.90;;;;;;5075294;28;20174;-81
2023/05/07 09:05:10;;;;;;;36.67;20.98;;;17.50;99.90;;;;;;5075752;28;20044;-81
2023/05/07 09:07:36;;;;;;;37.70;21.67;;;17.50;99.90;;;;;;5075755;28;20032;-81
2023/05/07 09:10:04;;;;;;;36.65;20.52;;;17.50;99.90;;;;;;5075284;28;20067;-80
2023/05/07 09:12:30;;;;;;;35.28;21.15;;;17.60;99.90;;;;;;5073291;28;20049;-82
2023/05/07 09:14:56;;;;;;;38.67;20.95;;;17.70;99.90;;;;;;5074886;28;20094;-76
2023/05/07 09:17:22;;;;;;;36.03;20.83;;;17.80;99.90;;;;;;5074089;28;20049;-80
2023/05/07 09:19:48;;;;;;;37.15;21.33;;;17.90;99.90;;;;;;5074504;28;20472;-83
2023/05/07 09:22:14;;;;;;;32.45;19.27;;;17.90;99.90;;;;;;5073832;28;20040;-81
2023/05/07 09:24:40;;;;;;;36.43;20.90;;;17.90;99.90;;;;;;5080180;28;20186;-78
2023/05/07 09:27:08;;;;;;;35.67;19.60;;;18.00;99.90;;;;;;5078837;28;20041;-77
2023/05/07 09:29:35;;;;;;;33.65;19.95;;;17.90;99.90;;;;;;5079510;28;20098;-78
2023/05/07 09:32:02;;;;;;;30.48;17.23;;;17.80;99.90;;;;;;5078716;28;20102;-81
2023/05/07 09:34:30;;;;;;;33.78;18.98;;;17.80;99.90;;;;;;5077225;28;20174;-79
2023/05/07 09:36:57;;;;;;;30.33;19.10;;;17.70;99.90;;;;;;5078313;28;20067;-80
2023/05/07 09:39:26;;;;;;;33.30;19.52;;;17.70;99.90;;;;;;5078053;28;20041;-81
2023/05/07 09:41:54;;;;;;;37.20;19.98;;;17.60;99.90;;;;;;5077334;28;20475;-80
2023/05/07 09:44:21;;;;;;;35.20;18.83;;;17.50;99.90;;;;;;5076397;28;20123;-76
2023/05/07 09:46:51;;;;;;;;;;;17.60;99.90;;;;;;5077536;28;20443;-79
2023/05/07 09:49:22;;;;;;;32.85;18.52;;;17.50;99.90;;;;;;5078224;28;20313;-84
2023/05/07 09:51:50;;;;;;;31.73;19.27;;;17.50;99.90;;;;;;5077490;28;20097;-81
2023/05/07 09:54:17;;;;;;;31.60;19.20;;;17.70;99.90;;;;;;5076817;28;20464;-81
2023/05/07 09:56:48;;;;;;;32.28;19.27;;;17.90;99.90;;;;;;5076097;28;20396;-81
2023/05/07 09:59:15;;;;;;;33.15;18.75;;;18.00;99.90;;;;;;5079630;28;20049;-77
2023/05/07 10:01:42;;;;;;;30.83;19.15;;;18.20;99.90;;;;;;5078562;28;20123;-83
2023/05/07 10:04:09;;;;;;;35.45;20.10;;;18.20;99.90;;;;;;5078669;28;20059;-80
2023/05/07 10:06:36;;;;;;;33.33;18.40;;;18.30;99.90;;;;;;5076596;28;20048;-83
2023/05/07 10:09:03;;;;;;;30.85;18.42;;;18.40;99.90;;;;;;5077089;28;20127;-82
2023/05/07 10:11:30;;;;;;;28.58;17.85;;;18.40;99.90;;;;;;5076584;28;20044;-82
2023/05/07 10:13:56;;;;;;;32.25;18.58;;;18.40;99.90;;;;;;5075612;28;20484;-82
2023/05/07 10:16:23;;;;;;;30.92;18.67;;;18.30;99.90;;;;;;5076782;28;20044;-81
2023/05/07 10:18:50;;;;;;;33.15;19.08;;;18.50;99.90;;;;;;5078146;28;20048;-79
2023/05/07 10:21:22;;;;;;;30.65;18.73;;;18.50;99.90;;;;;;5075864;28;20055;-80
2023/05/07 10:23:58;;;;;;;27.65;17.98;;;18.70;99.90;;;;;;5059321;28;20049;-79
2023/05/07 10:26:25;;;;;;;30.38;18.13;;;18.70;99.90;;;;;;5059683;28;20052;-77
2023/05/07 10:28:56;;;;;;;28.13;17.55;;;18.70;99.90;;;;;;5059686;28;20048;-78
2023/05/07 10:31:39;;;;;;;29.92;18.40;;;18.70;99.90;;;;;;5077971;28;20052;-81
2023/05/07 10:34:12;;;;;;;28.40;17.92;;;18.80;99.90;;;;;;5057990;28;20519;-80
2023/05/07 10:36:39;;;;;;;28.63;17.55;;;18.90;99.90;;;;;;5076812;28;20043;-79
2023/05/07 10:39:06;;;;;;;27.50;17.00;;;19.10;99.90;;;;;;5077054;28;20107;-81
2023/05/07 10:41:31;;;;;;;25.40;15.55;;;19.10;99.90;;;;;;5074623;28;20461;-83
2023/05/07 10:44:01;;;;;;;25.83;15.97;;;19.00;99.90;;;;;;5076103;28;20090;-82
2023/05/07 10:46:27;;;;;;;27.13;16.92;;;19.20;99.90;;;;;;5074613;28;20562;-81
2023/05/07 10:49:07;;;;;;;32.57;18.87;;;19.30;99.90;;;;;;5075059;28;20037;-79
2023/05/07 10:51:35;;;;;;;29.90;16.73;;;19.40;99.90;;;;;;5077091;28;20052;-79
2023/05/07 10:54:10;;;;;;;30.73;17.52;;;19.50;99.90;;;;;;5075209;28;20059;-81
2023/05/07 10:56:40;;;;;;;26.38;16.45;;;19.50;99.90;;;;;;5075046;28;20114;-82
2023/05/07 10:59:20;;;;;;;27.27;16.58;;;19.50;99.90;;;;;;5076264;28;20053;-79
2023/05/07 11:01:51;;;;;;;28.60;17.45;;;19.50;99.90;;;;;;5076810;28;20055;-83
2023/05/07 11:04:18;;;;;;;24.45;15.90;;;19.50;99.90;;;;;;5076636;28;20094;-79
2023/05/07 11:07:06;;;;;;;26.50;15.27;;;19.50;99.90;;;;;;5076583;28;20055;-79
2023/05/07 11:09:51;;;;;;;25.42;15.57;;;19.60;99.90;;;;;;5075472;28;20433;-76
2023/05/07 11:12:35;;;;;;;22.15;13.50;;;19.60;99.90;;;;;;5075866;28;20088;-81
2023/05/07 11:15:05;;;;;;;26.67;16.63;;;19.60;99.90;;;;;;5078591;28;20094;-80
2023/05/07 11:17:34;;;;;;;25.20;16.25;;;19.40;99.90;;;;;;5029296;28;20091;-78
2023/05/07 11:20:01;;;;;;;26.05;15.93;;;19.40;99.90;;;;;;5076834;28;20048;-79
2023/05/07 11:22:35;;;;;;;25.45;15.32;;;19.40;99.90;;;;;;5076904;28;20080;-81
2023/05/07 11:25:02;;;;;;;21.17;13.68;;;19.40;99.90;;;;;;5077799;28;20045;-77
2023/05/07 11:27:29;;;;;;;23.73;14.48;;;19.50;99.90;;;;;;5079816;28;20102;-81
2023/05/07 11:29:55;;;;;;;;;;;19.40;99.90;;;;;;5061839;28;20045;-79
2023/05/07 11:32:25;;;;;;;23.73;13.88;;;19.40;99.90;;;;;;5076898;28;19965;-80
2023/05/07 11:34:54;;;;;;;24.50;15.82;;;19.50;99.90;;;;;;5079625;28;20546;-83
2023/05/07 11:37:21;;;;;;;23.77;14.63;;;19.40;99.90;;;;;;5078186;28;20089;-83
2023/05/07 11:39:47;;;;;;;20.95;10.93;;;19.50;99.90;;;;;;5075822;28;20048;-77
2023/05/07 11:42:39;;;;;;;22.80;14.27;;;19.50;99.90;;;;;;5077536;28;20052;-80
2023/05/07 11:45:07;;;;;;;22.45;13.57;;;19.50;99.90;;;;;;5075749;28;20051;-81
2023/05/07 11:47:34;;;;;;;19.15;13.65;;;19.50;99.90;;;;;;5075409;28;20056;-81
2023/05/07 11:50:05;;;;;;;24.13;15.70;;;19.50;99.90;;;;;;5076882;28;20048;-82
2023/05/07 11:52:32;;;;;;;23.48;15.60;;;19.60;99.90;;;;;;5075556;28;20040;-83
2023/05/07 11:54:59;;;;;;;25.15;15.15;;;19.60;99.90;;;;;;5074546;28;20048;-80
2023/05/07 11:57:26;;;;;;;25.25;15.35;;;19.80;99.90;;;;;;5076188;28;20128;-83
2023/05/07 11:59:56;;;;;;;23.35;14.82;;;19.80;99.90;;;;;;5079423;28;20369;-82
2023/05/07 12:02:22;;;;;;;23.88;15.23;;;19.90;99.90;;;;;;5082243;28;20075;-81
2023/05/07 12:04:48;;;;;;;23.20;15.40;;;20.10;99.90;;;;;;5086665;28;20056;-82
2023/05/07 12:07:14;;;;;;;22.90;14.83;;;20.30;99.90;;;;;;5082742;28;20044;-83
2023/05/07 12:09:44;;;;;;;;;;;20.20;99.90;;;;;;5080028;28;20045;-83
2023/05/07 12:12:10;;;;;;;23.80;16.00;;;20.30;99.90;;;;;;5077937;28;19920;-83
2023/05/07 12:14:40;;;;;;;25.25;16.38;;;20.30;99.90;;;;;;5079488;28;20040;-83
2023/05/07 12:17:07;;;;;;;26.05;15.23;;;20.30;99.90;;;;;;5080407;28;20078;-81
2023/05/07 12:19:34;;;;;;;23.25;14.52;;;20.30;99.90;;;;;;5078143;28;20075;-77
2023/05/07 12:22:01;;;;;;;23.10;13.77;;;20.30;99.90;;;;;;5077507;28;20048;-80
2023/05/07 12:24:27;;;;;;;22.75;14.82;;;20.30;99.90;;;;;;5080130;28;20048;-83
2023/05/07 12:26:53;;;;;;;22.47;14.70;;;20.20;99.90;;;;;;5060763;28;20056;-81